createdAt,value
2017-07-03T00:00:17.777Z,72.27
2017-07-03T00:01:18.441Z,72.60
2017-07-03T00:02:19.056Z,72.65
2017-07-03T00:03:19.670Z,72.85
2017-07-03T00:04:20.282Z,72.85
2017-07-03T00:05:20.895Z,72.75
2017-07-03T00:06:21.593Z,72.75
2017-07-03T00:07:22.240Z,72.88
2017-07-03T00:08:22.839Z,71.93
2017-07-03T00:09:23.452Z,72.27
2017-07-03T00:10:24.065Z,71.98
2017-07-03T00:11:24.735Z,72.37
2017-07-03T00:12:25.346Z,72.08
2017-07-03T00:13:26.002Z,72.37
2017-07-03T00:14:26.608Z,72.85
2017-07-03T00:15:27.223Z,72.75
2017-07-03T00:16:27.922Z,72.56
2017-07-03T00:17:28.521Z,72.56
2017-07-03T00:18:29.135Z,72.75
2017-07-03T00:19:29.748Z,72.85
2017-07-03T00:20:30.401Z,72.85
2017-07-03T00:21:31.088Z,72.56
2017-07-03T00:22:31.689Z,73.13
2017-07-03T00:23:32.363Z,73.22
2017-07-03T00:24:32.963Z,72.94
2017-07-03T00:25:33.575Z,73.32
2017-07-03T00:26:34.238Z,73.41
2017-07-03T00:27:34.882Z,73.51
2017-07-03T00:28:35.483Z,73.13
2017-07-03T00:29:36.095Z,73.22
2017-07-03T00:30:36.711Z,73.41
2017-07-03T00:31:37.376Z,73.22
2017-07-03T00:32:37.990Z,73.51
2017-07-03T00:33:38.610Z,73.32
2017-07-03T00:34:39.226Z,73.70
2017-07-03T00:35:39.873Z,73.80
2017-07-03T00:36:40.570Z,73.32
2017-07-03T00:37:41.186Z,73.51
2017-07-03T00:38:41.800Z,73.51
2017-07-03T00:39:42.419Z,73.51
2017-07-03T00:40:43.041Z,73.61
2017-07-03T00:41:43.695Z,73.80
2017-07-03T00:42:44.309Z,73.61
2017-07-03T00:43:44.924Z,74.18
2017-07-03T00:44:45.537Z,74.08
2017-07-03T00:45:46.151Z,73.70
2017-07-03T00:46:46.817Z,74.37
2017-07-03T00:47:47.431Z,74.08
2017-07-03T00:48:48.046Z,73.99
2017-07-03T00:49:48.662Z,73.99
2017-07-03T00:50:49.274Z,74.08
2017-07-03T00:51:49.940Z,74.08
2017-07-03T00:52:50.586Z,74.18
2017-07-03T00:53:51.230Z,74.08
2017-07-03T00:54:51.830Z,73.99
2017-07-03T00:55:52.442Z,73.99
2017-07-03T00:56:53.104Z,74.18
2017-07-03T00:57:53.744Z,73.99
2017-07-03T00:58:54.346Z,74.08
2017-07-03T00:59:54.960Z,73.85
2017-07-03T01:00:55.579Z,74.04
2017-07-03T01:01:56.239Z,73.95
2017-07-03T01:02:56.860Z,74.27
2017-07-03T01:03:57.471Z,74.14
2017-07-03T01:04:58.121Z,73.95
2017-07-03T01:05:58.770Z,73.95
2017-07-03T01:06:59.436Z,74.04
2017-07-03T01:08:00.076Z,73.95
2017-07-03T01:09:00.676Z,73.95
2017-07-03T01:10:01.291Z,74.04
2017-07-03T01:11:01.910Z,73.95
2017-07-03T01:12:02.573Z,73.85
2017-07-03T01:13:03.186Z,74.14
2017-07-03T01:14:03.833Z,74.62
2017-07-03T01:15:04.444Z,74.71
2017-07-03T01:16:05.055Z,74.04
2017-07-03T01:17:05.744Z,74.43
2017-07-03T01:18:06.417Z,74.43
2017-07-03T01:19:07.018Z,74.62
2017-07-03T01:20:07.632Z,73.95
2017-07-03T01:21:08.243Z,74.04
2017-07-03T01:22:08.905Z,73.95
2017-07-03T01:23:09.516Z,74.33
2017-07-03T01:24:10.134Z,74.14
2017-07-03T01:25:10.743Z,74.52
2017-07-03T01:26:11.356Z,74.33
2017-07-03T01:27:12.026Z,74.71
2017-07-03T01:28:12.635Z,75.19
2017-07-03T01:29:13.249Z,74.87
2017-07-03T01:30:13.862Z,75.05
2017-07-03T01:31:14.479Z,74.87
2017-07-03T01:32:15.141Z,74.87
2017-07-03T01:33:15.752Z,75.72
2017-07-03T01:34:16.424Z,75.72
2017-07-03T01:35:17.024Z,75.72
2017-07-03T01:36:17.642Z,75.72
2017-07-03T01:37:18.325Z,75.81
2017-07-03T01:38:18.973Z,75.72
2017-07-03T01:39:19.585Z,75.34
2017-07-03T01:40:20.196Z,76.48
2017-07-03T01:41:20.808Z,76.01
2017-07-03T01:42:21.503Z,76.57
2017-07-03T01:43:22.117Z,76.76
2017-07-03T01:44:22.732Z,76.63
2017-07-03T01:45:23.346Z,76.67
2017-07-03T01:46:23.991Z,76.57
2017-07-03T01:47:24.635Z,76.76
2017-07-03T01:48:25.248Z,76.48
2017-07-03T01:49:25.860Z,76.57
2017-07-03T01:50:26.472Z,76.76
2017-07-03T01:51:27.084Z,76.67
2017-07-03T01:52:27.753Z,76.76
2017-07-03T01:53:28.362Z,76.76
2017-07-03T01:54:28.982Z,76.67
2017-07-03T01:55:29.592Z,76.76
2017-07-03T01:56:30.204Z,76.67
2017-07-03T01:57:30.866Z,76.86
2017-07-03T01:58:31.513Z,76.73
2017-07-03T01:59:32.123Z,77.34
2017-07-03T02:00:32.768Z,77.05
2017-07-03T02:01:33.380Z,76.82
2017-07-03T02:02:34.048Z,77.20
2017-07-03T02:03:34.660Z,78.06
2017-07-03T02:04:35.273Z,77.68
2017-07-03T02:05:35.884Z,77.49
2017-07-03T02:06:36.497Z,77.58
2017-07-03T02:07:37.159Z,77.68
2017-07-03T02:08:37.801Z,77.97
2017-07-03T02:09:38.398Z,77.87
2017-07-03T02:10:39.045Z,78.25
2017-07-03T02:11:39.655Z,77.97
2017-07-03T02:12:40.317Z,78.25
2017-07-03T02:13:40.929Z,78.06
2017-07-03T02:14:41.571Z,78.25
2017-07-03T02:15:42.217Z,78.34
2017-07-03T02:16:42.856Z,78.34
2017-07-03T02:17:43.537Z,78.06
2017-07-03T02:18:44.133Z,78.25
2017-07-03T02:19:44.744Z,77.97
2017-07-03T02:20:45.354Z,78.06
2017-07-03T02:21:45.968Z,78.29
2017-07-03T02:22:46.629Z,78.19
2017-07-03T02:23:47.248Z,78.00
2017-07-03T02:24:47.895Z,78.00
2017-07-03T02:25:48.509Z,78.19
2017-07-03T02:26:49.119Z,78.10
2017-07-03T02:27:49.815Z,78.67
2017-07-03T02:28:50.426Z,77.53
2017-07-03T02:29:51.037Z,77.62
2017-07-03T02:30:51.651Z,77.72
2017-07-03T02:31:52.295Z,77.34
2017-07-03T02:32:52.999Z,77.53
2017-07-03T02:33:53.611Z,77.53
2017-07-03T02:34:54.247Z,77.53
2017-07-03T02:35:54.847Z,77.81
2017-07-03T02:36:55.463Z,77.91
2017-07-03T02:37:56.123Z,77.91
2017-07-03T02:38:56.762Z,77.43
2017-07-03T02:39:57.359Z,77.43
2017-07-03T02:40:58.006Z,77.43
2017-07-03T02:41:58.616Z,77.34
2017-07-03T02:42:59.279Z,77.24
2017-07-03T02:43:59.927Z,77.24
2017-07-03T02:45:00.540Z,77.24
2017-07-03T02:46:01.155Z,77.05
2017-07-03T02:47:01.766Z,77.24
2017-07-03T02:48:02.454Z,77.53
2017-07-03T02:49:03.054Z,77.24
2017-07-03T02:50:03.698Z,77.81
2017-07-03T02:51:04.309Z,77.91
2017-07-03T02:52:04.927Z,77.68
2017-07-03T02:53:05.587Z,77.72
2017-07-03T02:54:06.198Z,77.58
2017-07-03T02:55:06.814Z,77.49
2017-07-03T02:56:07.430Z,77.68
2017-07-03T02:57:08.039Z,78.53
2017-07-03T02:58:08.701Z,78.16
2017-07-03T02:59:09.314Z,77.97
2017-07-03T03:00:09.931Z,78.00
2017-07-03T03:01:10.544Z,78.06
2017-07-03T03:02:11.157Z,77.91
2017-07-03T03:03:11.860Z,77.91
2017-07-03T03:04:12.469Z,78.10
2017-07-03T03:05:13.083Z,78.00
2017-07-03T03:06:13.698Z,78.38
2017-07-03T03:07:14.313Z,78.19
2017-07-03T03:08:14.972Z,78.19
2017-07-03T03:09:15.584Z,78.57
2017-07-03T03:10:16.255Z,78.57
2017-07-03T03:11:16.854Z,77.72
2017-07-03T03:12:17.497Z,77.53
2017-07-03T03:13:18.143Z,77.53
2017-07-03T03:14:18.756Z,77.81
2017-07-03T03:15:19.369Z,77.72
2017-07-03T03:16:19.982Z,77.81
2017-07-03T03:17:20.593Z,78.10
2017-07-03T03:18:21.261Z,77.62
2017-07-03T03:19:21.869Z,77.72
2017-07-03T03:20:22.542Z,78.38
2017-07-03T03:21:23.142Z,78.10
2017-07-03T03:22:23.787Z,77.91
2017-07-03T03:23:24.432Z,78.19
2017-07-03T03:24:25.044Z,78.19
2017-07-03T03:25:25.658Z,78.10
2017-07-03T03:26:26.303Z,78.29
2017-07-03T03:27:26.923Z,78.19
2017-07-03T03:28:27.600Z,78.00
2017-07-03T03:29:28.222Z,78.44
2017-07-03T03:30:28.871Z,78.00
2017-07-03T03:31:29.481Z,78.72
2017-07-03T03:32:30.092Z,78.00
2017-07-03T03:33:30.754Z,78.38
2017-07-03T03:34:31.396Z,78.38
2017-07-03T03:35:31.993Z,78.57
2017-07-03T03:36:32.604Z,78.57
2017-07-03T03:37:33.215Z,78.48
2017-07-03T03:38:33.880Z,78.67
2017-07-03T03:39:34.556Z,78.29
2017-07-03T03:40:35.176Z,78.00
2017-07-03T03:41:35.778Z,78.00
2017-07-03T03:42:36.391Z,77.62
2017-07-03T03:43:37.050Z,78.29
2017-07-03T03:44:37.669Z,78.67
2017-07-03T03:45:38.280Z,78.00
2017-07-03T03:46:38.897Z,79.11
2017-07-03T03:47:39.509Z,78.72
2017-07-03T03:48:40.177Z,78.48
2017-07-03T03:49:40.823Z,78.77
2017-07-03T03:50:41.433Z,77.91
2017-07-03T03:51:42.047Z,78.53
2017-07-03T03:52:42.661Z,77.91
2017-07-03T03:53:43.322Z,78.67
2017-07-03T03:54:43.973Z,78.67
2017-07-03T03:55:44.618Z,78.63
2017-07-03T03:56:45.231Z,78.34
2017-07-03T03:57:45.852Z,78.34
2017-07-03T03:58:46.534Z,79.11
2017-07-03T03:59:47.148Z,78.63
2017-07-03T04:00:47.779Z,78.44
2017-07-03T04:01:48.377Z,78.53
2017-07-03T04:02:48.988Z,78.82
2017-07-03T04:03:49.650Z,78.53
2017-07-03T04:04:50.262Z,78.63
2017-07-03T04:05:50.875Z,79.01
2017-07-03T04:06:51.546Z,78.91
2017-07-03T04:07:52.176Z,79.11
2017-07-03T04:08:52.847Z,79.39
2017-07-03T04:09:53.480Z,79.01
2017-07-03T04:10:54.075Z,79.39
2017-07-03T04:11:54.687Z,78.91
2017-07-03T04:12:55.299Z,79.30
2017-07-03T04:13:55.961Z,79.39
2017-07-03T04:14:56.577Z,79.39
2017-07-03T04:15:57.189Z,79.11
2017-07-03T04:16:57.800Z,79.20
2017-07-03T04:17:58.411Z,79.11
2017-07-03T04:18:59.073Z,79.58
2017-07-03T04:19:59.689Z,79.77
2017-07-03T04:21:00.300Z,79.20
2017-07-03T04:22:00.911Z,78.72
2017-07-03T04:23:01.525Z,79.49
2017-07-03T04:24:02.189Z,79.86
2017-07-03T04:25:02.802Z,79.58
2017-07-03T04:26:03.429Z,80.02
2017-07-03T04:27:04.033Z,79.73
2017-07-03T04:28:04.650Z,80.02
2017-07-03T04:29:05.309Z,80.49
2017-07-03T04:30:05.925Z,80.49
2017-07-03T04:31:06.535Z,80.68
2017-07-03T04:32:07.149Z,80.58
2017-07-03T04:33:07.799Z,80.68
2017-07-03T04:34:08.441Z,80.96
2017-07-03T04:35:09.054Z,80.96
2017-07-03T04:36:09.670Z,81.06
2017-07-03T04:37:10.332Z,81.25
2017-07-03T04:38:10.891Z,81.35
2017-07-03T04:39:11.587Z,81.16
2017-07-03T04:40:12.233Z,81.25
2017-07-03T04:41:12.845Z,81.25
2017-07-03T04:42:13.485Z,81.16
2017-07-03T04:43:14.085Z,81.73
2017-07-03T04:44:14.811Z,81.44
2017-07-03T04:45:15.408Z,81.63
2017-07-03T04:46:16.054Z,81.73
2017-07-03T04:47:16.649Z,81.82
2017-07-03T04:48:17.261Z,81.63
2017-07-03T04:49:17.923Z,81.54
2017-07-03T04:50:18.544Z,81.82
2017-07-03T04:51:19.187Z,81.63
2017-07-03T04:52:19.802Z,81.73
2017-07-03T04:53:20.415Z,81.73
2017-07-03T04:54:21.076Z,82.49
2017-07-03T04:55:21.694Z,82.29
2017-07-03T04:56:22.303Z,82.29
2017-07-03T04:57:22.915Z,81.82
2017-07-03T04:58:23.528Z,81.58
2017-07-03T04:59:24.198Z,81.77
2017-07-03T05:00:24.845Z,81.77
2017-07-03T05:01:25.457Z,81.77
2017-07-03T05:02:26.068Z,81.77
2017-07-03T05:03:26.680Z,81.67
2017-07-03T05:04:27.343Z,81.77
2017-07-03T05:05:27.956Z,81.77
2017-07-03T05:06:28.569Z,81.77
2017-07-03T05:07:29.214Z,81.77
2017-07-03T05:08:29.827Z,81.77
2017-07-03T05:09:30.490Z,81.20
2017-07-03T05:10:31.103Z,81.10
2017-07-03T05:11:31.716Z,81.20
2017-07-03T05:12:32.331Z,81.01
2017-07-03T05:13:32.943Z,81.38
2017-07-03T05:14:33.607Z,81.20
2017-07-03T05:15:34.218Z,81.20
2017-07-03T05:16:34.863Z,81.48
2017-07-03T05:17:35.484Z,81.48
2017-07-03T05:18:36.083Z,81.38
2017-07-03T05:19:36.751Z,81.10
2017-07-03T05:20:37.366Z,81.20
2017-07-03T05:21:37.977Z,81.10
2017-07-03T05:22:38.616Z,81.38
2017-07-03T05:23:39.216Z,81.38
2017-07-03T05:24:39.880Z,80.91
2017-07-03T05:25:40.493Z,81.20
2017-07-03T05:26:41.110Z,81.38
2017-07-03T05:27:41.720Z,81.20
2017-07-03T05:28:42.341Z,81.20
2017-07-03T05:29:43.001Z,80.91
2017-07-03T05:30:43.620Z,80.91
2017-07-03T05:31:44.233Z,81.10
2017-07-03T05:32:44.881Z,81.20
2017-07-03T05:33:45.496Z,81.29
2017-07-03T05:34:46.193Z,81.10
2017-07-03T05:35:46.838Z,81.48
2017-07-03T05:36:47.433Z,81.20
2017-07-03T05:37:48.045Z,81.77
2017-07-03T05:38:48.663Z,81.29
2017-07-03T05:39:49.380Z,81.20
2017-07-03T05:40:49.981Z,81.29
2017-07-03T05:41:50.595Z,81.29
2017-07-03T05:42:51.234Z,81.24
2017-07-03T05:43:51.862Z,80.91
2017-07-03T05:44:52.513Z,81.10
2017-07-03T05:45:53.156Z,81.29
2017-07-03T05:46:53.759Z,81.43
2017-07-03T05:47:54.433Z,81.20
2017-07-03T05:48:55.037Z,81.52
2017-07-03T05:49:55.708Z,81.29
2017-07-03T05:50:56.320Z,81.71
2017-07-03T05:51:56.939Z,81.33
2017-07-03T05:52:57.588Z,81.71
2017-07-03T05:53:58.213Z,82.00
2017-07-03T05:54:58.872Z,82.09
2017-07-03T05:55:59.486Z,82.00
2017-07-03T05:57:00.100Z,81.33
2017-07-03T05:58:00.720Z,81.33
2017-07-03T05:59:01.336Z,81.62
2017-07-03T06:00:02.041Z,81.18
2017-07-03T06:01:02.691Z,81.09
2017-07-03T06:02:03.310Z,80.99
2017-07-03T06:03:03.924Z,80.42
2017-07-03T06:04:04.539Z,80.95
2017-07-03T06:05:05.205Z,80.86
2017-07-03T06:06:05.825Z,80.95
2017-07-03T06:07:06.438Z,80.66
2017-07-03T06:08:07.054Z,80.66
2017-07-03T06:09:07.670Z,80.66
2017-07-03T06:10:08.368Z,80.86
2017-07-03T06:11:09.008Z,81.14
2017-07-03T06:12:09.612Z,81.14
2017-07-03T06:13:10.250Z,81.24
2017-07-03T06:14:10.853Z,80.95
2017-07-03T06:15:11.520Z,81.52
2017-07-03T06:16:12.133Z,81.24
2017-07-03T06:17:12.748Z,81.90
2017-07-03T06:18:13.363Z,81.71
2017-07-03T06:19:14.002Z,81.71
2017-07-03T06:20:14.653Z,81.81
2017-07-03T06:21:15.269Z,81.90
2017-07-03T06:22:15.883Z,81.90
2017-07-03T06:23:16.525Z,82.00
2017-07-03T06:24:17.127Z,81.90
2017-07-03T06:25:17.791Z,81.77
2017-07-03T06:26:18.407Z,82.00
2017-07-03T06:27:19.028Z,82.15
2017-07-03T06:28:19.639Z,81.81
2017-07-03T06:29:20.259Z,81.81
2017-07-03T06:30:20.921Z,82.34
2017-07-03T06:31:21.542Z,82.15
2017-07-03T06:32:22.154Z,82.05
2017-07-03T06:33:22.768Z,81.96
2017-07-03T06:34:23.384Z,82.05
2017-07-03T06:35:24.053Z,82.05
2017-07-03T06:36:24.700Z,81.77
2017-07-03T06:37:25.314Z,82.34
2017-07-03T06:38:25.929Z,82.53
2017-07-03T06:39:26.545Z,82.34
2017-07-03T06:40:27.210Z,82.24
2017-07-03T06:41:27.825Z,82.34
2017-07-03T06:42:28.439Z,82.05
2017-07-03T06:43:29.092Z,82.71
2017-07-03T06:44:29.703Z,83.04
2017-07-03T06:45:30.367Z,82.24
2017-07-03T06:46:30.983Z,82.38
2017-07-03T06:47:31.626Z,82.19
2017-07-03T06:48:32.226Z,82.67
2017-07-03T06:49:32.842Z,82.86
2017-07-03T06:50:33.508Z,82.00
2017-07-03T06:51:34.121Z,82.48
2017-07-03T06:52:34.736Z,82.09
2017-07-03T06:53:35.351Z,82.09
2017-07-03T06:54:35.968Z,82.09
2017-07-03T06:55:36.637Z,82.19
2017-07-03T06:56:37.247Z,82.28
2017-07-03T06:57:37.862Z,82.48
2017-07-03T06:58:38.478Z,82.38
2017-07-03T06:59:39.093Z,82.48
2017-07-03T07:00:39.764Z,82.38
2017-07-03T07:01:40.377Z,82.38
2017-07-03T07:02:40.998Z,82.67
2017-07-03T07:03:41.610Z,82.23
2017-07-03T07:04:42.227Z,82.23
2017-07-03T07:05:42.941Z,82.14
2017-07-03T07:06:43.557Z,82.23
2017-07-03T07:07:44.173Z,82.61
2017-07-03T07:08:44.792Z,82.32
2017-07-03T07:09:45.406Z,82.23
2017-07-03T07:10:46.072Z,82.23
2017-07-03T07:11:46.695Z,82.42
2017-07-03T07:12:47.330Z,82.42
2017-07-03T07:13:47.966Z,81.85
2017-07-03T07:14:48.563Z,81.66
2017-07-03T07:15:49.255Z,81.95
2017-07-03T07:16:49.863Z,81.85
2017-07-03T07:17:50.476Z,82.32
2017-07-03T07:18:51.096Z,82.27
2017-07-03T07:19:51.713Z,82.65
2017-07-03T07:20:52.404Z,82.46
2017-07-03T07:21:53.014Z,81.89
2017-07-03T07:22:53.688Z,81.70
2017-07-03T07:23:54.289Z,81.36
2017-07-03T07:24:54.938Z,80.94
2017-07-03T07:25:55.615Z,80.46
2017-07-03T07:26:56.246Z,80.84
2017-07-03T07:27:56.873Z,80.84
2017-07-03T07:28:57.478Z,81.03
2017-07-03T07:29:58.094Z,80.94
2017-07-03T07:30:58.762Z,80.94
2017-07-03T07:31:59.412Z,80.94
2017-07-03T07:33:00.030Z,80.65
2017-07-03T07:34:00.652Z,80.27
2017-07-03T07:35:01.266Z,80.18
2017-07-03T07:36:01.933Z,80.46
2017-07-03T07:37:02.551Z,80.65
2017-07-03T07:38:03.203Z,80.55
2017-07-03T07:39:03.820Z,80.36
2017-07-03T07:40:04.470Z,80.36
2017-07-03T07:41:05.145Z,80.84
2017-07-03T07:42:05.757Z,81.03
2017-07-03T07:43:06.382Z,81.23
2017-07-03T07:44:07.001Z,80.94
2017-07-03T07:45:07.615Z,81.23
2017-07-03T07:46:08.284Z,81.13
2017-07-03T07:47:08.901Z,80.88
2017-07-03T07:48:09.518Z,79.83
2017-07-03T07:49:10.167Z,80.41
2017-07-03T07:50:10.783Z,81.93
2017-07-03T07:51:11.453Z,81.84
2017-07-03T07:52:12.074Z,81.55
2017-07-03T07:53:12.691Z,81.93
2017-07-03T07:54:13.306Z,81.46
2017-07-03T07:55:13.926Z,80.98
2017-07-03T07:56:14.593Z,80.60
2017-07-03T07:57:15.208Z,80.79
2017-07-03T07:58:15.826Z,81.07
2017-07-03T07:59:16.478Z,79.74
2017-07-03T08:00:17.095Z,79.83
2017-07-03T08:01:17.788Z,80.12
2017-07-03T08:02:18.418Z,79.99
2017-07-03T08:03:19.053Z,79.41
2017-07-03T08:04:19.653Z,79.80
2017-07-03T08:05:20.273Z,80.55
2017-07-03T08:06:20.936Z,80.84
2017-07-03T08:07:21.554Z,81.41
2017-07-03T08:08:22.169Z,81.51
2017-07-03T08:09:22.786Z,80.94
2017-07-03T08:10:23.402Z,80.75
2017-07-03T08:11:24.095Z,80.94
2017-07-03T08:12:24.699Z,80.75
2017-07-03T08:13:25.315Z,80.75
2017-07-03T08:14:25.931Z,81.23
2017-07-03T08:15:26.574Z,81.03
2017-07-03T08:16:27.228Z,80.84
2017-07-03T08:17:27.845Z,81.23
2017-07-03T08:18:28.462Z,81.89
2017-07-03T08:19:29.110Z,82.37
2017-07-03T08:20:29.712Z,82.60
2017-07-03T08:21:30.383Z,81.93
2017-07-03T08:22:31.004Z,82.03
2017-07-03T08:23:31.616Z,81.36
2017-07-03T08:24:32.233Z,81.59
2017-07-03T08:25:32.849Z,82.17
2017-07-03T08:26:33.515Z,81.49
2017-07-03T08:27:34.133Z,79.78
2017-07-03T08:28:34.751Z,79.30
2017-07-03T08:29:35.367Z,79.78
2017-07-03T08:30:35.983Z,79.02
2017-07-03T08:31:36.884Z,79.55
2017-07-03T08:32:37.501Z,79.68
2017-07-03T08:33:38.120Z,80.54
2017-07-03T08:34:38.769Z,80.16
2017-07-03T08:35:39.421Z,79.88
2017-07-03T08:36:40.087Z,80.44
2017-07-03T08:37:40.706Z,79.78
2017-07-03T08:38:41.327Z,80.54
2017-07-03T08:39:41.965Z,80.83
2017-07-03T08:40:42.569Z,80.83
2017-07-03T08:41:43.271Z,79.97
2017-07-03T08:42:43.886Z,79.78
2017-07-03T08:43:44.504Z,79.88
2017-07-03T08:44:45.148Z,79.59
2017-07-03T08:45:45.752Z,80.07
2017-07-03T08:46:46.420Z,81.02
2017-07-03T08:47:47.061Z,80.39
2017-07-03T08:48:47.664Z,80.16
2017-07-03T08:49:48.283Z,79.91
2017-07-03T08:50:48.901Z,80.01
2017-07-03T08:51:49.570Z,79.82
2017-07-03T08:52:50.220Z,80.11
2017-07-03T08:53:50.872Z,79.44
2017-07-03T08:54:51.487Z,80.20
2017-07-03T08:55:52.105Z,79.35
2017-07-03T08:56:52.772Z,79.25
2017-07-03T08:57:53.391Z,79.63
2017-07-03T08:58:54.008Z,79.53
2017-07-03T08:59:54.627Z,79.82
2017-07-03T09:00:55.243Z,79.53
2017-07-03T09:01:55.912Z,79.91
2017-07-03T09:02:56.527Z,80.11
2017-07-03T09:03:57.151Z,80.01
2017-07-03T09:04:57.767Z,80.01
2017-07-03T09:05:58.382Z,79.25
2017-07-03T09:06:59.051Z,79.44
2017-07-03T09:07:59.671Z,79.06
2017-07-03T09:09:00.287Z,79.25
2017-07-03T09:10:00.904Z,78.86
2017-07-03T09:11:01.522Z,79.25
2017-07-03T09:12:02.190Z,79.35
2017-07-03T09:13:02.806Z,80.11
2017-07-03T09:14:03.425Z,79.28
2017-07-03T09:15:04.068Z,78.52
2017-07-03T09:16:04.718Z,78.14
2017-07-03T09:17:05.419Z,79.10
2017-07-03T09:18:06.038Z,79.19
2017-07-03T09:19:06.659Z,79.67
2017-07-03T09:20:07.307Z,79.10
2017-07-03T09:21:07.908Z,79.23
2017-07-03T09:22:08.577Z,78.37
2017-07-03T09:23:09.200Z,78.18
2017-07-03T09:24:09.816Z,78.47
2017-07-03T09:25:10.440Z,78.99
2017-07-03T09:26:11.062Z,77.70
2017-07-03T09:27:11.732Z,76.98
2017-07-03T09:28:12.346Z,76.69
2017-07-03T09:29:12.976Z,76.65
2017-07-03T09:30:13.634Z,76.56
2017-07-03T09:31:14.249Z,76.65
2017-07-03T09:32:14.917Z,76.84
2017-07-03T09:33:15.572Z,76.84
2017-07-03T09:34:16.196Z,77.03
2017-07-03T09:35:16.818Z,77.45
2017-07-03T09:36:17.433Z,76.98
2017-07-03T09:37:18.127Z,76.60
2017-07-03T09:38:18.732Z,75.45
2017-07-03T09:39:19.385Z,75.93
2017-07-03T09:40:20.002Z,76.12
2017-07-03T09:41:20.621Z,76.03
2017-07-03T09:42:21.322Z,75.83
2017-07-03T09:43:21.957Z,75.74
2017-07-03T09:44:22.560Z,75.45
2017-07-03T09:45:23.177Z,76.12
2017-07-03T09:46:23.797Z,75.83
2017-07-03T09:47:24.465Z,75.30
2017-07-03T09:48:25.110Z,75.10
2017-07-03T09:49:25.716Z,74.91
2017-07-03T09:50:26.343Z,75.30
2017-07-03T09:51:26.961Z,75.30
2017-07-03T09:52:27.675Z,75.20
2017-07-03T09:53:28.297Z,74.73
2017-07-03T09:54:28.947Z,74.34
2017-07-03T09:55:29.564Z,74.24
2017-07-03T09:56:30.181Z,73.19
2017-07-03T09:57:30.851Z,74.05
2017-07-03T09:58:31.469Z,73.96
2017-07-03T09:59:32.113Z,73.96
2017-07-03T10:00:32.718Z,74.34
2017-07-03T10:01:33.345Z,74.09
2017-07-03T10:02:34.011Z,73.90
2017-07-03T10:03:34.628Z,73.43
2017-07-03T10:04:35.248Z,74.09
2017-07-03T10:05:35.866Z,73.46
2017-07-03T10:06:36.490Z,73.55
2017-07-03T10:07:37.155Z,73.65
2017-07-03T10:08:37.785Z,72.69
2017-07-03T10:09:38.440Z,72.60
2017-07-03T10:10:39.055Z,72.12
2017-07-03T10:11:39.674Z,72.02
2017-07-03T10:12:40.345Z,71.64
2017-07-03T10:13:40.963Z,71.55
2017-07-03T10:14:41.582Z,71.30
2017-07-03T10:15:42.201Z,70.62
2017-07-03T10:16:42.820Z,68.96
2017-07-03T10:17:43.493Z,69.44
2017-07-03T10:18:44.112Z,70.11
2017-07-03T10:19:44.729Z,70.21
2017-07-03T10:20:45.349Z,69.98
2017-07-03T10:21:45.969Z,69.89
2017-07-03T10:22:46.638Z,70.50
2017-07-03T10:23:47.257Z,70.97
2017-07-03T10:24:47.877Z,70.68
2017-07-03T10:25:48.499Z,70.78
2017-07-03T10:26:49.115Z,70.21
2017-07-03T10:27:49.787Z,70.68
2017-07-03T10:28:50.407Z,69.86
2017-07-03T10:29:51.027Z,70.30
2017-07-03T10:30:51.681Z,70.15
2017-07-03T10:31:52.302Z,69.38
2017-07-03T10:32:52.973Z,69.09
2017-07-03T10:33:53.595Z,69.38
2017-07-03T10:34:54.213Z,70.05
2017-07-03T10:35:54.835Z,70.24
2017-07-03T10:36:55.453Z,69.00
2017-07-03T10:37:56.135Z,69.13
2017-07-03T10:38:56.752Z,69.60
2017-07-03T10:39:57.366Z,69.42
2017-07-03T10:40:57.985Z,68.94
2017-07-03T10:41:58.606Z,67.98
2017-07-03T10:42:59.281Z,67.79
2017-07-03T10:43:59.911Z,67.11
2017-07-03T10:45:00.525Z,67.02
2017-07-03T10:46:01.146Z,67.21
2017-07-03T10:47:01.766Z,67.79
2017-07-03T10:48:02.435Z,67.41
2017-07-03T10:49:03.120Z,67.11
2017-07-03T10:50:03.800Z,67.21
2017-07-03T10:51:04.408Z,67.63
2017-07-03T10:52:05.028Z,67.82
2017-07-03T10:53:05.697Z,67.82
2017-07-03T10:54:06.317Z,67.76
2017-07-03T10:55:06.937Z,67.95
2017-07-03T10:56:07.559Z,67.99
2017-07-03T10:57:08.209Z,67.50
2017-07-03T10:58:08.869Z,66.83
2017-07-03T10:59:09.491Z,65.01
2017-07-03T11:00:10.110Z,64.43
2017-07-03T11:01:10.730Z,64.79
2017-07-03T11:02:11.353Z,65.75
2017-07-03T11:03:12.029Z,65.08
2017-07-03T11:04:12.647Z,63.92
2017-07-03T11:05:13.270Z,64.02
2017-07-03T11:06:13.890Z,63.06
2017-07-03T11:07:14.513Z,64.40
2017-07-03T11:08:15.217Z,64.59
2017-07-03T11:09:15.837Z,64.50
2017-07-03T11:10:16.461Z,64.31
2017-07-03T11:11:17.120Z,64.25
2017-07-03T11:12:17.743Z,64.15
2017-07-03T11:13:18.411Z,64.34
2017-07-03T11:14:19.032Z,64.15
2017-07-03T11:15:19.656Z,63.86
2017-07-03T11:16:20.307Z,63.00
2017-07-03T11:17:20.945Z,63.09
2017-07-03T11:18:21.600Z,63.57
2017-07-03T11:19:22.222Z,63.19
2017-07-03T11:20:22.877Z,62.62
2017-07-03T11:21:23.482Z,63.09
2017-07-03T11:22:24.103Z,63.48
2017-07-03T11:23:24.775Z,62.71
2017-07-03T11:24:25.395Z,62.81
2017-07-03T11:25:26.020Z,62.81
2017-07-03T11:26:26.641Z,62.81
2017-07-03T11:27:27.263Z,63.22
2017-07-03T11:28:27.934Z,62.45
2017-07-03T11:29:28.558Z,62.07
2017-07-03T11:30:29.238Z,61.98
2017-07-03T11:31:29.847Z,61.69
2017-07-03T11:32:30.467Z,61.59
2017-07-03T11:33:31.140Z,61.30
2017-07-03T11:34:31.770Z,60.72
2017-07-03T11:35:32.386Z,61.30
2017-07-03T11:36:33.007Z,62.07
2017-07-03T11:37:33.628Z,61.69
2017-07-03T11:38:34.302Z,61.88
2017-07-03T11:39:34.928Z,60.85
2017-07-03T11:40:35.552Z,59.12
2017-07-03T11:41:36.173Z,59.19
2017-07-03T11:42:36.796Z,57.75
2017-07-03T11:43:37.469Z,57.28
2017-07-03T11:44:38.089Z,57.95
2017-07-03T11:45:38.712Z,58.81
2017-07-03T11:46:39.332Z,59.22
2017-07-03T11:47:39.983Z,58.84
2017-07-03T11:48:40.689Z,58.87
2017-07-03T11:49:41.339Z,58.10
2017-07-03T11:50:41.947Z,57.62
2017-07-03T11:51:42.597Z,57.14
2017-07-03T11:52:43.252Z,57.14
2017-07-03T11:53:43.927Z,57.62
2017-07-03T11:54:44.548Z,57.71
2017-07-03T11:55:45.170Z,57.36
2017-07-03T11:56:45.802Z,56.98
2017-07-03T11:57:46.423Z,57.07
2017-07-03T11:58:47.096Z,57.07
2017-07-03T11:59:47.719Z,56.49
2017-07-03T12:00:48.348Z,56.68
2017-07-03T12:01:48.966Z,56.33
2017-07-03T12:02:49.588Z,55.85
2017-07-03T12:03:50.261Z,55.76
2017-07-03T12:04:50.909Z,56.14
2017-07-03T12:05:51.518Z,55.40
2017-07-03T12:06:52.140Z,54.22
2017-07-03T12:07:52.766Z,52.68
2017-07-03T12:08:53.468Z,49.02
2017-07-03T12:09:54.106Z,49.00
2017-07-03T12:10:54.713Z,49.77
2017-07-03T12:11:55.367Z,50.25
2017-07-03T12:12:55.974Z,50.34
2017-07-03T12:13:56.714Z,50.73
2017-07-03T12:14:57.347Z,51.31
2017-07-03T12:15:57.989Z,51.02
2017-07-03T12:16:58.597Z,49.48
2017-07-03T12:17:59.227Z,50.15
2017-07-03T12:18:59.896Z,49.67
2017-07-03T12:20:00.526Z,51.11
2017-07-03T12:21:01.185Z,50.82
2017-07-03T12:22:01.816Z,50.76
2017-07-03T12:23:02.435Z,49.99
2017-07-03T12:24:03.111Z,49.69
2017-07-03T12:25:03.740Z,49.99
2017-07-03T12:26:04.362Z,50.37
2017-07-03T12:27:04.994Z,50.30
2017-07-03T12:28:05.614Z,50.40
2017-07-03T12:29:06.293Z,48.76
2017-07-03T12:30:06.920Z,48.47
2017-07-03T12:31:07.549Z,48.66
2017-07-03T12:32:08.234Z,46.93
2017-07-03T12:33:08.846Z,45.20
2017-07-03T12:34:09.525Z,45.78
2017-07-03T12:35:10.148Z,45.18
2017-07-03T12:36:10.797Z,45.37
2017-07-03T12:37:11.409Z,45.37
2017-07-03T12:38:12.033Z,44.43
2017-07-03T12:39:12.735Z,44.62
2017-07-03T12:40:13.378Z,44.62
2017-07-03T12:41:13.984Z,45.01
2017-07-03T12:42:14.611Z,45.22
2017-07-03T12:43:15.232Z,44.55
2017-07-03T12:44:15.909Z,44.35
2017-07-03T12:45:16.540Z,43.78
2017-07-03T12:46:17.162Z,43.88
2017-07-03T12:47:17.825Z,43.68
2017-07-03T12:48:18.481Z,43.78
2017-07-03T12:49:19.182Z,43.90
2017-07-03T12:50:19.792Z,42.93
2017-07-03T12:51:20.446Z,41.30
2017-07-03T12:52:21.058Z,41.49
2017-07-03T12:53:21.681Z,40.99
2017-07-03T12:54:22.357Z,41.68
2017-07-03T12:55:22.982Z,41.88
2017-07-03T12:56:23.608Z,41.39
2017-07-03T12:57:24.272Z,42.46
2017-07-03T12:58:24.900Z,42.46
2017-07-03T12:59:25.822Z,41.97
2017-07-03T13:00:26.454Z,42.47